createdAt,value
2023-03-15T00:01:01.549Z,85
2023-03-15T00:04:26.689Z,85
2023-03-15T00:07:51.767Z,84
2023-03-15T00:11:16.859Z,85
2023-03-15T00:14:41.985Z,85
2023-03-15T00:18:07.074Z,84
2023-03-15T00:21:32.200Z,83
2023-03-15T00:24:57.279Z,83
2023-03-15T00:28:22.394Z,83
2023-03-15T00:31:47.517Z,83
2023-03-15T00:35:12.609Z,82
2023-03-15T00:38:37.740Z,82
2023-03-15T00:42:02.804Z,81
2023-03-15T00:45:27.917Z,80
2023-03-15T00:48:53.063Z,79
2023-03-15T00:52:18.138Z,79
2023-03-15T00:55:43.270Z,79
2023-03-15T00:59:08.362Z,80
2023-03-15T01:02:33.481Z,79
2023-03-15T01:05:58.576Z,78
2023-03-15T01:09:23.671Z,77
2023-03-15T01:12:48.805Z,77
2023-03-15T01:16:13.988Z,78
2023-03-15T01:19:39.022Z,78
2023-03-15T01:23:04.114Z,79
2023-03-15T01:26:29.212Z,78
2023-03-15T01:29:54.355Z,78
2023-03-15T01:33:19.426Z,77
2023-03-15T01:36:44.544Z,76
2023-03-15T01:40:09.656Z,76
2023-03-15T01:43:34.753Z,77
2023-03-15T01:47:00.012Z,78
2023-03-15T01:50:24.950Z,78
2023-03-15T01:53:50.073Z,78
2023-03-15T01:57:15.161Z,78
2023-03-15T02:00:40.360Z,78
2023-03-15T02:04:05.396Z,77
2023-03-15T02:07:30.484Z,78
2023-03-15T02:10:55.584Z,77
2023-03-15T02:14:20.698Z,79
2023-03-15T02:17:45.801Z,79
2023-03-15T02:21:10.923Z,78
2023-03-15T02:24:36.025Z,78
2023-03-15T02:28:01.108Z,79
2023-03-15T02:31:26.210Z,78
2023-03-15T02:34:51.314Z,78
2023-03-15T02:38:16.448Z,79
2023-03-15T02:41:41.535Z,79
2023-03-15T02:45:06.634Z,79
2023-03-15T02:48:31.730Z,79
2023-03-15T02:51:56.822Z,80
2023-03-15T02:55:21.965Z,80
2023-03-15T02:58:47.049Z,80
2023-03-15T03:02:12.250Z,80
2023-03-15T03:05:37.257Z,81
2023-03-15T03:09:02.357Z,81
2023-03-15T03:12:28.428Z,81
2023-03-15T03:15:53.531Z,81
2023-03-15T03:19:18.617Z,81
2023-03-15T03:22:43.724Z,80
2023-03-15T03:26:08.825Z,81
2023-03-15T03:29:33.970Z,81
2023-03-15T03:32:59.075Z,81
2023-03-15T03:36:24.133Z,80
2023-03-15T03:39:49.247Z,81
2023-03-15T03:43:14.359Z,80
2023-03-15T03:46:39.481Z,80
2023-03-15T03:50:04.544Z,82
2023-03-15T03:53:29.628Z,81
2023-03-15T03:56:54.729Z,81
2023-03-15T04:00:19.869Z,81
2023-03-15T04:03:45.013Z,81
2023-03-15T04:07:10.073Z,81
2023-03-15T04:10:35.192Z,80
2023-03-15T04:14:00.294Z,80
2023-03-15T04:17:25.392Z,79
2023-03-15T04:20:50.541Z,79
2023-03-15T04:24:15.633Z,79
2023-03-15T04:27:40.723Z,79
2023-03-15T04:31:05.870Z,79
2023-03-15T04:34:31.067Z,80
2023-03-15T04:37:56.205Z,79
2023-03-15T04:41:21.298Z,79
2023-03-15T04:44:46.430Z,79
2023-03-15T04:48:11.534Z,79
2023-03-15T04:51:36.652Z,78
2023-03-15T04:55:01.776Z,78
2023-03-15T04:58:26.857Z,78
2023-03-15T05:01:52.018Z,79
2023-03-15T05:05:17.140Z,79
2023-03-15T05:08:42.254Z,80
2023-03-15T05:12:07.398Z,80
2023-03-15T05:15:32.597Z,80
2023-03-15T05:18:57.637Z,81
2023-03-15T05:22:22.772Z,81
2023-03-15T05:25:48.443Z,81
2023-03-15T05:29:13.588Z,81
2023-03-15T05:32:38.709Z,82
2023-03-15T05:36:03.811Z,82
2023-03-15T05:39:28.912Z,82
2023-03-15T05:42:54.042Z,81
2023-03-15T05:46:19.252Z,82
2023-03-15T05:49:44.375Z,81
2023-03-15T05:53:09.496Z,81
2023-03-15T05:56:34.745Z,82
2023-03-15T05:59:59.878Z,82
2023-03-15T06:03:25.086Z,83
2023-03-15T06:06:50.210Z,82
2023-03-15T06:10:15.325Z,82
2023-03-15T06:13:40.452Z,82
2023-03-15T06:17:05.565Z,82
2023-03-15T06:20:30.686Z,81
2023-03-15T06:23:55.784Z,80
2023-03-15T06:27:20.907Z,81
2023-03-15T06:30:46.062Z,81
2023-03-15T06:34:11.120Z,82
2023-03-15T06:37:36.313Z,81
2023-03-15T06:41:01.335Z,81
2023-03-15T06:44:26.427Z,81
2023-03-15T06:47:51.532Z,81
2023-03-15T06:51:16.636Z,81
2023-03-15T06:54:41.823Z,81
2023-03-15T06:58:06.901Z,81
2023-03-15T07:01:32.093Z,81
2023-03-15T07:04:57.176Z,82
2023-03-15T07:08:22.293Z,83
2023-03-15T07:11:47.486Z,84
2023-03-15T07:15:12.554Z,84
2023-03-15T07:18:37.654Z,85
2023-03-15T07:22:02.741Z,85
2023-03-15T07:25:27.863Z,86
2023-03-15T07:28:53.061Z,86
2023-03-15T07:32:18.320Z,86
2023-03-15T07:35:43.272Z,86
2023-03-15T07:39:08.398Z,86
2023-03-15T07:42:33.513Z,86
2023-03-15T07:45:58.680Z,86
2023-03-15T07:49:23.784Z,86
2023-03-15T07:52:48.911Z,86
2023-03-15T07:56:14.028Z,87
2023-03-15T07:59:39.167Z,86
2023-03-15T08:03:04.391Z,87
2023-03-15T08:06:29.396Z,87
2023-03-15T08:09:54.579Z,87
2023-03-15T08:13:19.674Z,87
2023-03-15T08:16:44.803Z,87
2023-03-15T08:20:09.933Z,88
2023-03-15T08:23:35.062Z,87
2023-03-15T08:27:00.204Z,87
2023-03-15T08:30:25.285Z,87
2023-03-15T08:33:50.391Z,87
2023-03-15T08:37:15.534Z,87
2023-03-15T08:40:40.633Z,87
2023-03-15T08:44:05.758Z,86
2023-03-15T08:47:30.847Z,87
2023-03-15T08:50:55.944Z,86
2023-03-15T08:54:21.081Z,86
2023-03-15T08:57:46.168Z,86
2023-03-15T09:01:11.283Z,86
2023-03-15T09:04:36.493Z,85
2023-03-15T09:08:01.499Z,84
2023-03-15T09:11:26.622Z,84
2023-03-15T09:14:51.734Z,84
2023-03-15T09:18:16.858Z,84
2023-03-15T09:21:42.962Z,85
2023-03-15T09:25:07.076Z,84
2023-03-15T09:28:32.220Z,84
2023-03-15T09:31:57.303Z,85
2023-03-15T09:35:22.430Z,85
2023-03-15T09:38:47.542Z,86
2023-03-15T09:42:12.631Z,86
2023-03-15T09:45:37.824Z,86
2023-03-15T09:49:02.994Z,86
2023-03-15T09:52:28.105Z,86
2023-03-15T09:55:53.227Z,85
2023-03-15T09:59:18.324Z,85
2023-03-15T10:02:43.462Z,83
2023-03-15T10:06:08.559Z,84
2023-03-15T10:09:33.715Z,84
2023-03-15T10:12:58.778Z,84
2023-03-15T10:16:24.047Z,85
2023-03-15T10:19:49.104Z,85
2023-03-15T10:23:14.202Z,86
2023-03-15T10:26:39.352Z,86
2023-03-15T10:30:04.470Z,86
2023-03-15T10:33:29.583Z,87
2023-03-15T10:36:54.741Z,87
2023-03-15T10:40:19.906Z,87
2023-03-15T10:43:44.996Z,86
2023-03-15T10:47:22.385Z,85
2023-03-15T10:50:35.290Z,85
2023-03-15T10:54:00.429Z,85
2023-03-15T10:57:25.513Z,84
2023-03-15T11:00:50.674Z,82
2023-03-15T11:04:15.729Z,83
2023-03-15T11:07:40.827Z,85
2023-03-15T11:11:05.996Z,83
2023-03-15T11:14:31.090Z,84
2023-03-15T11:17:56.734Z,83
2023-03-15T11:21:21.851Z,83
2023-03-15T11:24:47.022Z,82
2023-03-15T11:28:12.081Z,82
2023-03-15T11:31:37.287Z,83
2023-03-15T11:35:02.267Z,82
2023-03-15T11:38:27.381Z,83
2023-03-15T11:41:52.518Z,83
2023-03-15T11:45:17.656Z,84
2023-03-15T11:48:42.776Z,84
2023-03-15T11:52:07.864Z,84
2023-03-15T11:55:32.984Z,82
2023-03-15T11:59:02.390Z,81
2023-03-15T12:02:27.560Z,84
2023-03-15T12:05:52.615Z,83
2023-03-15T12:09:17.724Z,82
2023-03-15T12:12:42.846Z,81
2023-03-15T12:16:07.958Z,79
2023-03-15T12:19:33.106Z,80
2023-03-15T12:22:58.398Z,80
2023-03-15T12:26:23.316Z,81
2023-03-15T12:29:48.452Z,78
2023-03-15T12:33:13.575Z,79
2023-03-15T12:36:38.804Z,79
2023-03-15T12:40:03.872Z,78
2023-03-15T12:43:29.024Z,78
2023-03-15T12:46:54.269Z,77
2023-03-15T12:50:19.388Z,77
2023-03-15T12:53:44.548Z,77
2023-03-15T12:57:09.630Z,77
2023-03-15T13:00:34.763Z,76
2023-03-15T13:03:59.949Z,76
2023-03-15T13:07:25.015Z,77
2023-03-15T13:10:50.167Z,79
2023-03-15T13:14:15.265Z,78
2023-03-15T13:17:40.362Z,79
2023-03-15T13:21:05.527Z,77
2023-03-15T13:24:30.633Z,80
2023-03-15T13:27:55.766Z,79
2023-03-15T13:31:20.910Z,77
2023-03-15T13:34:46.001Z,79
2023-03-15T13:38:11.125Z,81
2023-03-15T13:41:36.224Z,81
2023-03-15T13:45:01.359Z,81
2023-03-15T13:48:26.449Z,81
2023-03-15T13:51:51.576Z,82
2023-03-15T13:55:16.723Z,83
2023-03-15T13:58:41.818Z,84
2023-03-15T14:02:07.046Z,84
2023-03-15T14:05:32.129Z,83
2023-03-15T14:08:57.292Z,80
2023-03-15T14:12:22.441Z,81
2023-03-15T14:15:47.553Z,81
2023-03-15T14:19:12.693Z,79
2023-03-15T14:22:38.656Z,80
2023-03-15T14:26:02.910Z,82
2023-03-15T14:29:28.033Z,83
2023-03-15T14:32:53.303Z,84
2023-03-15T14:36:18.412Z,84
2023-03-15T14:39:43.489Z,84
2023-03-15T14:43:08.910Z,84
2023-03-15T14:46:34.044Z,83
2023-03-15T14:49:59.646Z,82
2023-03-15T14:53:24.710Z,84
2023-03-15T14:56:49.813Z,84
2023-03-15T15:00:14.935Z,83
2023-03-15T15:03:40.087Z,84
2023-03-15T15:41:04.913Z,83
2023-03-15T15:44:30.014Z,81
2023-03-15T15:47:55.136Z,80
2023-03-15T15:51:20.233Z,80
2023-03-15T15:54:45.362Z,79
2023-03-15T15:58:11.899Z,79
2023-03-15T16:01:39.251Z,79
2023-03-15T16:05:00.680Z,79
2023-03-15T16:08:25.789Z,78
2023-03-15T16:11:50.903Z,78
2023-03-15T16:15:16.083Z,78
2023-03-15T16:18:41.151Z,77
2023-03-15T16:22:06.288Z,77
2023-03-15T16:25:31.420Z,76
2023-03-15T16:28:56.536Z,77
2023-03-15T16:32:29.718Z,76
